createdAt,value
2022-12-25T00:01:42.344Z,101821.37
2022-12-25T00:04:09.367Z,101823.45
2022-12-25T00:06:37.703Z,101824.90
2022-12-25T00:09:04.661Z,101824.20
2022-12-25T00:11:31.643Z,101821.50
2022-12-25T00:13:58.563Z,101821.08
2022-12-25T00:16:27.118Z,101823.31
2022-12-25T00:18:56.339Z,101824.87
2022-12-25T00:21:23.285Z,101827.31
2022-12-25T00:23:58.369Z,101832.12
2022-12-25T00:26:27.032Z,101831.13
2022-12-25T00:28:55.859Z,101828.34
2022-12-25T00:31:23.949Z,101828.77
2022-12-25T00:33:52.064Z,101827.81
2022-12-25T00:36:21.554Z,101831.09
2022-12-25T00:38:48.815Z,101830.06
2022-12-25T00:41:39.193Z,101831.18
2022-12-25T00:44:07.146Z,101832.72
2022-12-25T00:46:34.112Z,101838.29
2022-12-25T00:49:01.302Z,101843.77
2022-12-25T00:51:28.717Z,101847.98
2022-12-25T00:53:55.637Z,101850.11
2022-12-25T00:56:22.578Z,101854.00
2022-12-25T00:58:49.499Z,101856.73
2022-12-25T01:01:16.881Z,101860.70
2022-12-25T01:03:44.030Z,101861.46
2022-12-25T01:06:13.191Z,101864.23
2022-12-25T01:09:01.003Z,101867.06
2022-12-25T01:11:28.647Z,101870.26
2022-12-25T01:13:55.704Z,101869.06
2022-12-25T01:16:22.871Z,101878.64
2022-12-25T01:18:50.121Z,101879.97
2022-12-25T01:21:21.236Z,101883.75
2022-12-25T01:23:50.957Z,101881.54
2022-12-25T01:26:18.808Z,101886.02
2022-12-25T01:28:46.292Z,101881.71
2022-12-25T01:31:16.241Z,101891.41
2022-12-25T01:33:44.134Z,101888.92
2022-12-25T01:36:25.123Z,101890.20
2022-12-25T01:38:53.638Z,101889.36
2022-12-25T01:41:22.370Z,101891.27
2022-12-25T01:44:37.744Z,101886.94
2022-12-25T01:47:06.797Z,101880.05
2022-12-25T01:49:39.223Z,101875.52
2022-12-25T01:52:11.932Z,101876.46
2022-12-25T01:54:58.645Z,101876.30
2022-12-25T01:57:30.806Z,101874.98
2022-12-25T01:59:59.393Z,101875.84
2022-12-25T02:02:28.112Z,101882.33
2022-12-25T02:05:00.991Z,101877.23
2022-12-25T02:07:32.651Z,101876.61
2022-12-25T02:09:59.630Z,101880.38
2022-12-25T02:12:32.911Z,101881.44
2022-12-25T02:15:08.346Z,101888.76
2022-12-25T02:18:06.204Z,101888.38
2022-12-25T02:20:39.387Z,101891.77
2022-12-25T02:23:12.186Z,101888.96
2022-12-25T02:25:42.033Z,101888.13
2022-12-25T02:28:27.728Z,101888.86
2022-12-25T02:31:17.854Z,101888.71
2022-12-25T02:34:13.700Z,101889.71
2022-12-25T02:37:02.835Z,101891.79
2022-12-25T02:40:00.905Z,101894.44
2022-12-25T02:43:21.929Z,101891.09
2022-12-25T02:46:15.939Z,101893.10
2022-12-25T02:49:10.007Z,101890.14
2022-12-25T02:51:59.301Z,101896.67
2022-12-25T02:54:51.211Z,101901.12
2022-12-25T02:57:42.566Z,101896.31
2022-12-25T03:00:28.641Z,101892.80
2022-12-25T03:03:17.390Z,101894.97
2022-12-25T03:06:03.853Z,101895.86
2022-12-25T03:08:37.286Z,101901.00
2022-12-25T03:11:25.655Z,101900.42
2022-12-25T03:14:18.526Z,101904.98
2022-12-25T03:16:53.896Z,101903.29
2022-12-25T03:19:43.429Z,101900.48
2022-12-25T03:22:35.556Z,101904.98
2022-12-25T03:25:21.557Z,101907.22
2022-12-25T03:27:52.883Z,101907.91
2022-12-25T03:30:40.486Z,101906.17
2022-12-25T03:33:44.490Z,101906.70
2022-12-25T03:36:26.495Z,101915.22
2022-12-25T03:39:07.802Z,101919.94
2022-12-25T03:42:08.246Z,101921.31
2022-12-25T03:45:20.598Z,101925.09
2022-12-25T03:48:08.688Z,101926.92
2022-12-25T03:51:03.017Z,101926.34
2022-12-25T03:53:55.072Z,101930.15
2022-12-25T03:56:40.826Z,101931.85
2022-12-25T03:59:26.172Z,101928.72
2022-12-25T04:02:11.990Z,101929.73
2022-12-25T04:04:57.829Z,101925.92
2022-12-25T04:07:43.639Z,101921.63
2022-12-25T04:10:29.802Z,101921.41
2022-12-25T04:13:15.523Z,101923.85
2022-12-25T04:16:00.940Z,101917.60
2022-12-25T04:18:46.520Z,101921.04
2022-12-25T04:21:32.015Z,101932.02
2022-12-25T04:24:17.413Z,101933.70
2022-12-25T04:27:03.115Z,101940.05
2022-12-25T04:29:48.837Z,101939.27
2022-12-25T04:32:34.386Z,101941.33
2022-12-25T04:35:20.331Z,101942.18
2022-12-25T04:37:47.335Z,101944.83
2022-12-25T04:40:14.574Z,101941.27
2022-12-25T04:42:41.792Z,101937.70
2022-12-25T04:45:09.687Z,101942.66
2022-12-25T04:47:36.771Z,101938.09
2022-12-25T04:50:04.317Z,101939.70
2022-12-25T04:52:36.554Z,101945.88
2022-12-25T04:55:04.798Z,101948.06
2022-12-25T04:57:31.928Z,101945.25
2022-12-25T04:59:58.874Z,101943.04
2022-12-25T05:02:26.000Z,101948.98
2022-12-25T05:04:53.129Z,101945.55
2022-12-25T05:07:20.077Z,101948.36
2022-12-25T05:09:48.321Z,101949.61
2022-12-25T05:12:16.080Z,101954.71
2022-12-25T05:14:43.109Z,101957.15
2022-12-25T05:17:10.147Z,101962.36
2022-12-25T05:19:37.194Z,101964.04
2022-12-25T05:22:04.221Z,101966.62
2022-12-25T05:24:31.324Z,101968.25
2022-12-25T05:26:58.456Z,101966.77
2022-12-25T05:29:25.547Z,101967.91
2022-12-25T05:31:52.568Z,101968.69
2022-12-25T05:34:19.562Z,101973.79
2022-12-25T05:36:46.529Z,101971.89
2022-12-25T05:39:13.518Z,101977.92
2022-12-25T05:41:40.981Z,101977.16
2022-12-25T05:44:08.068Z,101974.84
2022-12-25T05:46:35.090Z,101979.08
2022-12-25T05:49:02.149Z,101981.15
2022-12-25T05:51:30.955Z,101979.12
2022-12-25T05:53:58.063Z,101980.50
2022-12-25T05:56:25.120Z,101981.08
2022-12-25T05:58:52.131Z,101987.71
2022-12-25T06:01:22.045Z,101992.52
2022-12-25T06:03:49.248Z,101991.92
2022-12-25T06:06:16.450Z,101995.15
2022-12-25T06:08:43.592Z,102001.25
2022-12-25T06:11:13.092Z,102002.83
2022-12-25T06:13:40.519Z,102005.23
2022-12-25T06:16:09.866Z,102006.30
2022-12-25T06:18:39.371Z,102009.47
2022-12-25T06:21:08.259Z,102012.60
2022-12-25T06:23:35.857Z,102012.52
2022-12-25T06:26:09.074Z,102014.38
2022-12-25T06:28:37.016Z,102015.59
2022-12-25T06:31:08.165Z,102022.53
2022-12-25T06:33:35.404Z,102026.02
2022-12-25T06:36:16.385Z,102029.73
2022-12-25T06:38:43.839Z,102030.84
2022-12-25T06:41:13.512Z,102031.27
2022-12-25T06:43:40.656Z,102027.83
2022-12-25T06:46:10.812Z,102030.70
2022-12-25T06:48:39.860Z,102029.11
2022-12-25T06:51:07.560Z,102027.34
2022-12-25T06:53:40.185Z,102040.54
2022-12-25T06:56:11.131Z,102048.91
2022-12-25T06:58:38.043Z,102057.55
2022-12-25T07:01:15.734Z,102059.83
2022-12-25T07:03:45.692Z,102059.29
2022-12-25T07:06:13.021Z,102059.92
2022-12-25T07:08:39.966Z,102064.58
2022-12-25T07:11:07.486Z,102065.91
2022-12-25T07:13:34.627Z,102069.89
2022-12-25T07:16:04.206Z,102077.21
2022-12-25T07:18:32.332Z,102078.23
2022-12-25T07:21:00.420Z,102079.38
2022-12-25T07:23:27.395Z,102086.59
2022-12-25T07:25:59.057Z,102090.73
2022-12-25T07:28:27.158Z,102094.98
2022-12-25T07:30:54.279Z,102099.42
2022-12-25T07:33:21.416Z,102104.41
2022-12-25T07:35:48.391Z,102104.42
2022-12-25T07:38:15.343Z,102112.30
2022-12-25T07:40:45.761Z,102113.89
2022-12-25T07:43:13.159Z,102114.96
2022-12-25T07:45:40.123Z,102116.77
2022-12-25T07:48:11.914Z,102124.60
2022-12-25T07:50:44.552Z,102132.08
2022-12-25T07:53:11.501Z,102133.61
2022-12-25T07:55:38.400Z,102129.31
2022-12-25T07:58:07.271Z,102134.33
2022-12-25T08:00:34.398Z,102138.52
2022-12-25T08:03:01.767Z,102138.27
2022-12-25T08:05:31.170Z,102137.54
2022-12-25T08:07:58.382Z,102139.33
2022-12-25T08:10:25.845Z,102142.67
2022-12-25T08:12:56.409Z,102144.73
2022-12-25T08:15:23.304Z,102145.33
2022-12-25T08:17:50.238Z,102145.75
2022-12-25T08:20:17.367Z,102148.20
2022-12-25T08:22:44.525Z,102152.36
2022-12-25T08:25:11.573Z,102154.59
2022-12-25T08:27:38.531Z,102156.75
2022-12-25T08:30:06.509Z,102164.60
2022-12-25T08:32:34.055Z,102172.06
2022-12-25T08:35:01.183Z,102176.03
2022-12-25T08:37:30.473Z,102178.16
2022-12-25T08:39:57.479Z,102189.68
2022-12-25T08:42:24.691Z,102200.03
2022-12-25T08:44:51.640Z,102202.19
2022-12-25T08:47:18.864Z,102203.38
2022-12-25T08:49:46.005Z,102209.56
2022-12-25T08:52:13.186Z,102215.39
2022-12-25T08:54:40.387Z,102220.85
2022-12-25T08:57:08.033Z,102224.48
2022-12-25T08:59:34.945Z,102221.04
2022-12-25T09:02:02.191Z,102219.61
2022-12-25T09:04:29.276Z,102216.55
2022-12-25T09:06:56.320Z,102217.34
2022-12-25T09:09:27.839Z,102221.95
2022-12-25T09:11:55.397Z,102225.69
2022-12-25T09:14:22.361Z,102231.42
2022-12-25T09:16:52.309Z,102232.71
2022-12-25T09:19:19.757Z,102231.92
2022-12-25T09:21:46.688Z,102229.23
2022-12-25T09:24:13.699Z,102230.69
2022-12-25T09:26:40.708Z,102230.05
2022-12-25T09:29:07.688Z,102229.95
2022-12-25T09:31:34.718Z,102227.75
2022-12-25T09:34:01.774Z,102227.55
2022-12-25T09:36:29.296Z,102230.61
2022-12-25T09:38:56.255Z,102233.44
2022-12-25T09:41:32.459Z,102229.80
2022-12-25T09:44:21.898Z,102225.80
2022-12-25T09:46:57.892Z,102223.45
2022-12-25T09:49:30.608Z,102225.94
2022-12-25T09:52:05.267Z,102234.39
2022-12-25T09:54:48.771Z,102233.02
2022-12-25T09:57:16.272Z,102227.25
2022-12-25T09:59:45.337Z,102231.02
2022-12-25T10:02:21.335Z,102233.31
2022-12-25T10:05:02.112Z,102236.08
2022-12-25T10:08:05.626Z,102235.45
2022-12-25T10:10:44.667Z,102235.83
2022-12-25T10:13:40.835Z,102230.98
2022-12-25T10:16:31.375Z,102228.60
2022-12-25T10:19:19.313Z,102223.65
2022-12-25T10:21:47.563Z,102222.61
2022-12-25T10:24:33.891Z,102222.84
2022-12-25T10:27:05.203Z,102222.59
2022-12-25T10:29:35.135Z,102227.36
2022-12-25T10:32:02.430Z,102227.06
2022-12-25T10:34:30.091Z,102225.62
2022-12-25T10:37:01.053Z,102219.42
2022-12-25T10:39:28.203Z,102216.77
2022-12-25T10:41:55.203Z,102213.95
2022-12-25T10:44:26.696Z,102210.73
2022-12-25T10:46:59.188Z,102201.88
2022-12-25T10:49:39.685Z,102203.38
2022-12-25T10:52:24.699Z,102204.86
2022-12-25T10:54:52.438Z,102202.08
2022-12-25T10:57:22.408Z,102195.98
2022-12-25T10:59:52.509Z,102194.14
2022-12-25T11:02:27.980Z,102189.27
2022-12-25T11:05:03.543Z,102186.86
2022-12-25T11:07:32.524Z,102185.39
2022-12-25T11:10:05.581Z,102186.58
2022-12-25T11:12:41.934Z,102183.09
2022-12-25T11:15:42.430Z,102182.77
2022-12-25T11:18:22.101Z,102182.45
2022-12-25T11:20:51.505Z,102181.41
2022-12-25T11:23:21.352Z,102183.31
2022-12-25T11:26:04.655Z,102183.84
2022-12-25T11:28:34.724Z,102187.14
2022-12-25T11:31:10.725Z,102187.95
2022-12-25T11:34:02.987Z,102184.89
2022-12-25T11:36:51.909Z,102181.23
2022-12-25T11:39:29.232Z,102181.13
2022-12-25T11:42:26.837Z,102181.74
2022-12-25T11:45:12.111Z,102179.50
2022-12-25T11:48:19.673Z,102172.20
2022-12-25T11:51:00.329Z,102166.38
2022-12-25T11:53:42.201Z,102163.11
2022-12-25T11:56:16.237Z,102170.16
2022-12-25T11:58:48.711Z,102167.14
2022-12-25T12:01:54.388Z,102168.03
2022-12-25T12:04:31.737Z,102168.36
2022-12-25T12:07:10.976Z,102169.73
2022-12-25T12:09:45.662Z,102173.45
2022-12-25T12:12:15.711Z,102175.95
2022-12-25T12:14:57.066Z,102175.46
2022-12-25T12:17:24.161Z,102180.19
2022-12-25T12:19:52.936Z,102182.09
2022-12-25T12:22:28.165Z,102181.11
2022-12-25T12:25:06.830Z,102176.52
2022-12-25T12:27:43.062Z,102171.05
2022-12-25T12:30:30.323Z,102172.31
2022-12-25T12:33:01.484Z,102171.09
2022-12-25T12:35:41.296Z,102164.71
2022-12-25T12:38:16.027Z,102158.34
2022-12-25T12:40:52.586Z,102158.52
2022-12-25T12:43:43.542Z,102159.59
2022-12-25T12:46:27.966Z,102162.46
2022-12-25T12:49:29.624Z,102167.16
2022-12-25T12:52:26.323Z,102169.37
2022-12-25T12:55:01.607Z,102168.75
2022-12-25T12:57:32.980Z,102166.73
2022-12-25T13:00:10.605Z,102165.00
2022-12-25T13:02:51.633Z,102166.46
2022-12-25T13:05:29.069Z,102166.91
2022-12-25T13:08:19.547Z,102174.71
2022-12-25T13:10:53.112Z,102174.83
2022-12-25T13:13:34.535Z,102173.30
2022-12-25T13:16:06.774Z,102171.00
2022-12-25T13:18:35.590Z,102171.98
2022-12-25T13:21:06.985Z,102175.90
2022-12-25T13:23:36.749Z,102177.40
2022-12-25T13:26:15.021Z,102182.30
2022-12-25T13:28:42.275Z,102179.91
2022-12-25T13:31:22.844Z,102180.72
2022-12-25T13:34:07.231Z,102179.41
2022-12-25T13:36:40.456Z,102186.02
2022-12-25T13:39:09.881Z,102189.98
2022-12-25T13:42:04.734Z,102193.27
2022-12-25T13:44:43.414Z,102196.58
2022-12-25T13:47:23.165Z,102203.50
2022-12-25T13:49:52.786Z,102204.60
2022-12-25T13:52:36.069Z,102201.41
2022-12-25T13:55:11.328Z,102204.48
2022-12-25T13:58:05.298Z,102205.65
2022-12-25T14:00:50.520Z,102202.63
2022-12-25T14:03:26.708Z,102212.96
2022-12-25T14:05:59.463Z,102216.85
2022-12-25T14:08:31.444Z,102219.58
2022-12-25T14:11:04.997Z,102223.31
2022-12-25T14:13:35.981Z,102222.41
2022-12-25T14:16:03.397Z,102226.33
2022-12-25T14:18:33.923Z,102227.56
2022-12-25T14:21:10.307Z,102230.88
2022-12-25T14:23:46.459Z,102229.83
2022-12-25T14:26:21.879Z,102231.37
2022-12-25T14:28:55.758Z,102234.16
2022-12-25T14:31:25.257Z,102236.91
2022-12-25T14:33:53.972Z,102236.06
2022-12-25T14:36:21.579Z,102235.23
2022-12-25T14:39:07.424Z,102234.83
2022-12-25T14:41:42.082Z,102236.00
2022-12-25T14:44:34.814Z,102235.95
2022-12-25T14:47:11.013Z,102235.87
2022-12-25T14:49:38.896Z,102233.26
2022-12-25T14:52:36.502Z,102228.80
2022-12-25T14:55:08.248Z,102228.73
2022-12-25T14:57:40.036Z,102231.70
2022-12-25T15:00:27.801Z,102227.66
2022-12-25T15:02:57.942Z,102228.97
2022-12-25T15:05:40.771Z,102229.13
2022-12-25T15:11:01.824Z,102228.39
2022-12-25T15:13:34.551Z,102230.98
2022-12-25T15:16:22.268Z,102229.62
2022-12-25T15:18:50.832Z,102233.18
2022-12-25T15:21:27.430Z,102231.95
2022-12-25T15:23:55.588Z,102231.92
2022-12-25T15:26:22.935Z,102231.11
2022-12-25T15:28:50.137Z,102230.47
2022-12-25T15:31:32.141Z,102234.02
2022-12-25T15:34:02.512Z,102234.39
2022-12-25T15:36:32.679Z,102239.00
2022-12-25T15:39:00.519Z,102236.36
2022-12-25T15:41:52.636Z,102239.78
2022-12-25T15:44:21.213Z,102241.70
2022-12-25T15:46:50.971Z,102244.62
2022-12-25T15:49:18.397Z,102244.99
2022-12-25T15:51:46.742Z,102242.62
2022-12-25T15:54:14.121Z,102242.88
2022-12-25T15:56:43.233Z,102243.35
2022-12-25T15:59:12.489Z,102245.11
2022-12-25T16:01:42.301Z,102240.17
2022-12-25T16:04:09.283Z,102242.50
2022-12-25T16:06:36.316Z,102240.44
2022-12-25T16:09:03.444Z,102245.27
2022-12-25T16:11:30.606Z,102243.96
2022-12-25T16:13:57.849Z,102245.67
2022-12-25T16:16:25.008Z,102248.76
2022-12-25T16:18:52.094Z,102250.08
2022-12-25T16:21:21.344Z,102247.80
2022-12-25T16:23:48.473Z,102251.52
2022-12-25T16:26:15.608Z,102251.50
2022-12-25T16:28:42.628Z,102260.64
2022-12-25T16:31:10.949Z,102263.85
2022-12-25T16:33:37.961Z,102266.77
2022-12-25T16:36:05.172Z,102266.65
2022-12-25T16:38:32.233Z,102271.27
2022-12-25T16:41:01.209Z,102271.59
2022-12-25T16:43:28.928Z,102271.80
2022-12-25T16:45:57.556Z,102271.38
2022-12-25T16:48:24.629Z,102270.69
2022-12-25T16:50:51.677Z,102274.77
2022-12-25T16:53:19.678Z,102278.75
2022-12-25T16:55:46.605Z,102285.86
2022-12-25T16:58:13.607Z,102285.13
2022-12-25T17:00:45.736Z,102286.02
2022-12-25T17:03:16.590Z,102285.22
2022-12-25T17:05:43.698Z,102292.80
2022-12-25T17:08:12.463Z,102294.14
2022-12-25T17:10:39.602Z,102295.56
2022-12-25T17:13:08.215Z,102300.38
2022-12-25T17:15:35.322Z,102298.79
2022-12-25T17:18:02.358Z,102301.13
2022-12-25T17:20:29.399Z,102306.63
2022-12-25T17:22:58.156Z,102310.02
2022-12-25T17:25:25.261Z,102311.55
2022-12-25T17:27:52.408Z,102315.59
2022-12-25T17:30:19.497Z,102314.65
2022-12-25T17:32:47.295Z,102316.20
2022-12-25T17:35:14.421Z,102316.69
2022-12-25T17:37:41.731Z,102317.38
2022-12-25T17:40:11.340Z,102321.33
2022-12-25T17:42:38.337Z,102326.95
2022-12-25T17:45:05.836Z,102331.92
2022-12-25T17:47:33.048Z,102329.64
2022-12-25T17:50:00.859Z,102334.01
2022-12-25T17:52:27.837Z,102332.73
2022-12-25T17:54:54.830Z,102335.60
2022-12-25T17:57:21.857Z,102340.53
2022-12-25T17:59:49.647Z,102341.64
2022-12-25T18:02:16.757Z,102344.13
2022-12-25T18:04:43.851Z,102345.66
2022-12-25T18:07:10.930Z,102347.58
2022-12-25T18:09:38.144Z,102351.09
2022-12-25T18:12:05.546Z,102350.60
2022-12-25T18:14:32.615Z,102350.92
2022-12-25T18:17:01.881Z,102351.98
2022-12-25T18:19:30.331Z,102348.64
2022-12-25T18:21:57.449Z,102349.98
2022-12-25T18:24:24.593Z,102346.73
2022-12-25T18:26:51.647Z,102345.63
2022-12-25T18:29:18.898Z,102345.71
2022-12-25T18:31:45.953Z,102343.42
2022-12-25T18:34:13.996Z,102342.48
2022-12-25T18:36:41.218Z,102340.70
2022-12-25T18:39:08.264Z,102337.60
2022-12-25T18:41:55.118Z,102338.13
2022-12-25T18:44:22.115Z,102342.09
2022-12-25T18:46:49.163Z,102341.40
2022-12-25T18:49:16.164Z,102342.94
2022-12-25T18:51:43.264Z,102345.48
2022-12-25T18:54:10.273Z,102348.87
2022-12-25T18:56:37.413Z,102348.64
2022-12-25T18:59:04.629Z,102349.92
2022-12-25T19:01:33.417Z,102352.85
2022-12-25T19:04:05.183Z,102354.33
2022-12-25T19:06:33.595Z,102355.25
2022-12-25T19:09:00.936Z,102360.95
2022-12-25T19:11:30.805Z,102362.53
2022-12-25T19:13:57.869Z,102362.42
2022-12-25T19:16:25.059Z,102359.12
2022-12-25T19:18:52.738Z,102359.61
2022-12-25T19:21:19.674Z,102361.73
2022-12-25T19:23:47.061Z,102361.36
2022-12-25T19:26:15.246Z,102366.55
2022-12-25T19:28:43.503Z,102368.91
2022-12-25T19:31:11.034Z,102366.46
2022-12-25T19:33:41.598Z,102371.91
2022-12-25T19:36:14.044Z,102373.40
2022-12-25T19:38:42.979Z,102371.50
2022-12-25T19:41:18.672Z,102376.48
2022-12-25T19:43:50.439Z,102374.30
2022-12-25T19:46:27.335Z,102375.58
2022-12-25T19:48:55.559Z,102372.34
2022-12-25T19:51:29.417Z,102374.05
2022-12-25T19:53:57.938Z,102372.83
2022-12-25T19:56:27.018Z,102373.93
2022-12-25T19:59:00.390Z,102376.17
2022-12-25T20:01:30.446Z,102374.79
2022-12-25T20:03:59.613Z,102379.73
2022-12-25T20:06:33.357Z,102376.61
2022-12-25T20:09:06.927Z,102381.29
2022-12-25T20:11:36.222Z,102382.41
2022-12-25T20:14:04.580Z,102380.66
2022-12-25T20:16:33.681Z,102384.86
2022-12-25T20:19:02.161Z,102386.17
2022-12-25T20:21:30.221Z,102385.23
2022-12-25T20:23:57.963Z,102384.00
2022-12-25T20:26:32.200Z,102387.23
2022-12-25T20:29:01.311Z,102385.11
2022-12-25T20:31:33.288Z,102381.83
2022-12-25T20:34:05.948Z,102373.23
2022-12-25T20:36:37.227Z,102378.50
2022-12-25T20:39:10.072Z,102384.93
2022-12-25T20:41:40.985Z,102383.47
2022-12-25T20:44:10.291Z,102385.18
2022-12-25T20:46:38.009Z,102387.95
2022-12-25T20:49:05.822Z,102385.70
2022-12-25T20:51:34.612Z,102389.22
2022-12-25T20:54:09.545Z,102387.58
2022-12-25T20:56:38.898Z,102389.02
2022-12-25T20:59:05.973Z,102388.73
2022-12-25T21:01:33.077Z,102389.95
2022-12-25T21:04:00.305Z,102391.64
2022-12-25T21:06:28.082Z,102393.79
2022-12-25T21:08:55.262Z,102392.58
2022-12-25T21:11:22.471Z,102386.91
2022-12-25T21:13:50.662Z,102386.07
2022-12-25T21:16:21.685Z,102386.27
2022-12-25T21:18:52.635Z,102388.81
2022-12-25T21:21:20.760Z,102390.95
2022-12-25T21:23:48.000Z,102392.09
2022-12-25T21:26:24.088Z,102392.36
2022-12-25T21:28:53.799Z,102397.30
2022-12-25T21:31:22.783Z,102396.61
2022-12-25T21:33:53.741Z,102397.52
2022-12-25T21:36:29.836Z,102398.14
2022-12-25T21:39:00.352Z,102403.73
2022-12-25T21:41:29.021Z,102403.33
2022-12-25T21:43:56.739Z,102405.22
2022-12-25T21:46:26.089Z,102405.31
2022-12-25T21:48:54.769Z,102408.46
2022-12-25T21:51:46.083Z,102409.16
2022-12-25T21:54:14.793Z,102409.57
2022-12-25T21:56:45.408Z,102405.20
2022-12-25T21:59:20.007Z,102408.16
2022-12-25T22:01:54.479Z,102407.11
2022-12-25T22:04:23.002Z,102404.70
2022-12-25T22:07:10.405Z,102406.65
2022-12-25T22:09:38.110Z,102406.23
2022-12-25T22:12:30.135Z,102408.05
2022-12-25T22:15:06.907Z,102403.48
2022-12-25T22:17:54.121Z,102402.23
2022-12-25T22:20:37.649Z,102406.29
2022-12-25T22:23:06.226Z,102407.20
2022-12-25T22:25:33.196Z,102408.47
2022-12-25T22:28:00.731Z,102406.87
2022-12-25T22:30:29.388Z,102409.63
2022-12-25T22:32:56.995Z,102407.61
2022-12-25T22:35:25.499Z,102405.44
2022-12-25T22:37:54.187Z,102402.64
2022-12-25T22:40:22.527Z,102405.20
2022-12-25T22:42:49.890Z,102404.99
2022-12-25T22:45:17.266Z,102405.52
2022-12-25T22:47:44.357Z,102408.91
2022-12-25T22:50:12.483Z,102405.61
2022-12-25T22:52:40.863Z,102406.41
2022-12-25T22:55:10.009Z,102409.98
2022-12-25T22:57:37.343Z,102411.23
2022-12-25T23:00:15.142Z,102411.11
2022-12-25T23:02:43.551Z,102413.48
2022-12-25T23:05:12.323Z,102409.98
2022-12-25T23:07:41.943Z,102411.52
2022-12-25T23:10:10.345Z,102415.47
2022-12-25T23:12:56.039Z,102417.80
2022-12-25T23:15:23.174Z,102416.09
2022-12-25T23:18:09.554Z,102414.59
2022-12-25T23:20:58.503Z,102408.18
2022-12-25T23:23:45.440Z,102404.20
2022-12-25T23:26:15.893Z,102404.31
2022-12-25T23:29:07.600Z,102409.09
2022-12-25T23:31:38.379Z,102408.02
2022-12-25T23:34:06.701Z,102408.91
2022-12-25T23:36:35.703Z,102409.95
2022-12-25T23:39:09.708Z,102410.14
2022-12-25T23:41:40.628Z,102411.83
2022-12-25T23:44:08.377Z,102410.95
2022-12-25T23:46:37.866Z,102414.96
2022-12-25T23:49:05.351Z,102419.31
2022-12-25T23:51:32.658Z,102422.02
2022-12-25T23:54:00.399Z,102424.52
2022-12-25T23:56:29.245Z,102427.59
2022-12-25T23:58:56.680Z,102430.77
